Time;durP1;ratioP1;P1;durP2;ratioP2;P2;SDS_P1;SDS_P2;PMS_P1;PMS_P2;Temp;Humidity;BMP_temperature;BMP_pressure;BME280_temperature;BME280_humidity;BME280_pressure;Samples;Min_cycle;Max_cycle;Signal;HPM_P1;HPM_P2
2022/08/15 00:01:19;;;;;;;6.78;5.95;;;;;;;21.87;80.58;99855.09;1724035;81;20956;-68
2022/08/15 00:03:51;;;;;;;7.42;6.45;;;;;;;21.87;80.65;99861.87;1720189;81;21505;-67
2022/08/15 00:06:22;;;;;;;6.22;5.78;;;;;;;21.86;80.65;99856.16;1727719;81;20968;-68
2022/08/15 00:08:53;;;;;;;8.55;6.25;;;;;;;21.84;80.78;99856.17;1732640;81;20973;-67
2022/08/15 00:11:31;;;;;;;6.70;6.20;;;;;;;21.83;80.80;99856.73;1727256;81;21068;-67
2022/08/15 00:14:22;;;;;;;6.87;6.40;;;;;;;21.82;80.80;99852.93;1715809;81;21893;-67
2022/08/15 00:16:48;;;;;;;7.00;5.75;;;;;;;21.79;80.88;99858.34;1698140;81;20997;-68
2022/08/15 00:19:19;;;;;;;8.28;6.28;;;;;;;21.75;80.82;99851.30;1745933;80;20951;-68
2022/08/15 00:21:51;;;;;;;7.30;6.50;;;;;;;21.74;80.91;99847.52;1746335;80;21086;-68
2022/08/15 00:24:22;;;;;;;6.87;6.35;;;;;;;21.74;80.78;99855.11;1756602;80;21111;-68
2022/08/15 00:26:51;;;;;;;9.70;6.58;;;;;;;21.74;80.82;99851.59;1744056;80;21050;-68
2022/08/15 00:29:20;;;;;;;6.55;6.05;;;;;;;21.74;80.65;99847.52;1735157;80;21546;-68
2022/08/15 00:31:47;;;;;;;8.25;6.15;;;;;;;21.74;80.61;99858.38;1756128;80;21058;-68
2022/08/15 00:34:16;;;;;;;6.87;6.37;;;;;;;21.74;80.48;99857.02;1738796;80;20971;-68
2022/08/15 00:38:45;;;;;;;6.10;5.75;;;;;;;21.81;80.36;99853.45;1779078;78;22520;-69
2022/08/15 00:44:01;;;;;;;7.30;6.30;;;;;;;21.73;80.38;99848.59;1730094;80;21530;-67
2022/08/15 00:46:29;;;;;;;7.50;6.40;;;;;;;21.72;80.25;99853.77;1705132;82;21077;-66
2022/08/15 00:48:57;;;;;;;6.50;5.62;;;;;;;21.70;80.38;99848.61;1718970;82;20938;-67
2022/08/15 00:51:43;;;;;;;5.75;5.35;;;;;;;21.70;80.33;99840.47;1709283;82;21581;-67
2022/08/15 00:54:27;;;;;;;7.15;6.47;;;;;;;21.70;80.29;99850.48;1722379;82;21509;-67
2022/08/15 00:57:05;;;;;;;6.25;5.50;;;;;;;21.68;80.25;99843.17;1669256;82;21877;-68
2022/08/15 00:59:36;;;;;;;6.53;6.00;;;;;;;21.66;80.36;99839.41;1662061;84;21005;-68
2022/08/15 01:02:08;;;;;;;8.23;6.40;;;;;;;21.64;80.37;99842.09;1650609;84;20948;-68
2022/08/15 01:04:36;;;;;;;6.45;6.03;;;;;;;21.64;80.20;99842.09;1646065;85;21048;-68
2022/08/15 01:07:06;;;;;;;6.45;5.95;;;;;;;21.65;80.16;99839.67;1646419;85;21059;-67
2022/08/15 01:09:32;;;;;;;6.40;5.90;;;;;;;21.67;80.11;99838.85;1647010;86;21058;-68
2022/08/15 01:12:07;;;;;;;11.28;6.10;;;;;;;21.66;80.04;99833.98;1644689;84;21111;-68
2022/08/15 01:14:38;;;;;;;8.08;5.45;;;;;;;21.67;79.83;99845.62;1692297;83;21911;-68
2022/08/15 01:17:07;;;;;;;5.55;5.33;;;;;;;21.67;79.65;99836.94;1684223;83;20973;-68
2022/08/15 01:19:41;;;;;;;6.67;5.58;;;;;;;21.68;79.66;99831.80;1676992;83;21364;-68
2022/08/15 01:22:42;;;;;;;9.50;6.08;;;;;;;21.66;79.69;99823.13;1699393;83;21045;-68
2022/08/15 01:25:20;;;;;;;7.35;6.62;;;;;;;21.65;79.59;99830.98;1668888;83;21487;-70
2022/08/15 01:28:03;;;;;;;8.13;5.35;;;;;;;21.65;79.64;99830.18;1670975;83;21033;-68
2022/08/15 01:30:36;;;;;;;6.08;5.55;;;;;;;21.64;79.65;99832.05;1682205;83;21144;-67
2022/08/15 01:33:03;;;;;;;5.58;5.25;;;;;;;21.63;79.61;99816.08;1660799;83;20960;-67
2022/08/15 01:35:29;;;;;;;7.08;4.90;;;;;;;21.62;79.68;99815.80;1613390;86;21036;-69
2022/08/15 01:37:58;;;;;;;6.08;5.58;;;;;;;21.60;79.68;99813.36;1617211;86;20999;-69
2022/08/15 01:40:44;;;;;;;6.28;5.78;;;;;;;21.62;79.67;99814.44;1618289;86;20964;-68
2022/08/15 01:43:12;;;;;;;5.85;5.28;;;;;;;21.62;79.68;99817.16;1624264;86;20978;-69
2022/08/15 01:45:41;;;;;;;6.95;6.12;;;;;;;21.60;79.72;99817.42;1621731;86;21024;-69
2022/08/15 01:48:19;;;;;;;10.82;5.22;;;;;;;21.58;79.78;99812.27;1597397;86;20988;-69
2022/08/15 01:50:50;;;;;;;5.72;5.25;;;;;;;21.58;79.82;99820.41;1615424;86;21055;-69
2022/08/15 01:53:43;;;;;;;8.35;5.33;;;;;;;21.57;79.85;99807.95;1612595;87;21927;-69
2022/08/15 01:56:21;;;;;;;7.03;6.22;;;;;;;21.56;79.91;99809.58;1630647;84;20966;-68
2022/08/15 01:58:47;;;;;;;6.12;5.62;;;;;;;21.54;80.00;99809.03;1657523;84;21104;-69
2022/08/15 02:01:17;;;;;;;6.37;5.78;;;;;;;21.53;80.18;99808.23;1625331;85;20980;-69
2022/08/15 02:03:47;;;;;;;5.87;5.47;;;;;;;21.51;80.22;99813.13;1666848;84;20974;-68
2022/08/15 02:06:24;;;;;;;5.58;5.15;;;;;;;21.52;80.25;99809.30;1625789;86;20971;-69
2022/08/15 02:08:52;;;;;;;6.25;5.70;;;;;;;21.53;80.20;99806.88;1649237;85;21619;-69
2022/08/15 02:11:22;;;;;;;6.78;5.83;;;;;;;21.54;80.18;99803.06;1636405;84;21008;-68
2022/08/15 02:13:54;;;;;;;6.60;6.10;;;;;;;21.56;80.12;99809.02;1650684;85;21063;-67
2022/08/15 02:16:24;;;;;;;6.15;5.60;;;;;;;21.58;80.11;99809.55;1641096;85;20984;-68
2022/08/15 02:18:51;;;;;;;5.15;4.85;;;;;;;21.60;80.05;99809.29;1638017;85;21528;-68
2022/08/15 02:21:17;;;;;;;6.10;5.58;;;;;;;21.62;79.96;99807.11;1643489;85;22430;-69
2022/08/15 02:23:43;;;;;;;6.05;5.15;;;;;;;21.64;79.89;99808.20;1645251;85;20964;-69
2022/08/15 02:26:09;;;;;;;7.72;5.25;;;;;;;21.66;79.85;99811.45;1660327;84;20966;-69
2022/08/15 02:28:42;;;;;;;5.83;5.42;;;;;;;21.62;79.98;99807.11;1639478;85;21611;-68
2022/08/15 02:31:17;;;;;;;5.17;4.78;;;;;;;21.62;80.08;99809.02;1642814;85;21059;-67
2022/08/15 02:33:51;;;;;;;6.92;4.80;;;;;;;21.63;80.21;99806.59;1647108;84;20996;-67
2022/08/15 02:36:18;;;;;;;5.80;5.20;;;;;;;21.60;80.30;99807.94;1639533;85;21016;-68
2022/08/15 02:38:47;;;;;;;6.42;6.03;;;;;;;21.57;80.45;99806.59;1635450;86;21625;-68
2022/08/15 02:41:21;;;;;;;5.20;4.85;;;;;;;21.58;80.39;99812.27;1620570;86;21024;-67
2022/08/15 02:43:49;;;;;;;5.15;4.72;;;;;;;21.60;80.40;99808.48;1627476;86;21024;-69
2022/08/15 02:46:16;;;;;;;6.05;5.53;;;;;;;21.57;80.54;99805.23;1631389;85;21040;-69
2022/08/15 02:48:49;;;;;;;6.35;5.53;;;;;;;21.54;80.56;99802.26;1633560;86;21056;-69
2022/08/15 02:51:18;;;;;;;5.28;4.78;;;;;;;21.53;80.66;99801.98;1628470;85;21088;-69
2022/08/15 02:53:48;;;;;;;5.75;5.35;;;;;;;21.51;80.87;99806.34;1606247;87;21102;-68
2022/08/15 02:56:20;;;;;;;6.25;5.65;;;;;;;21.50;80.87;99812.03;1586517;88;21019;-69
2022/08/15 02:58:48;;;;;;;5.90;5.50;;;;;;;21.49;80.95;99811.23;1598939;87;21026;-69
2022/08/15 03:01:17;;;;;;;5.67;5.28;;;;;;;21.47;81.01;99805.23;1626212;86;21041;-69
2022/08/15 03:03:48;;;;;;;6.05;5.10;;;;;;;21.47;81.08;99807.95;1641756;85;21106;-69
2022/08/15 03:06:18;;;;;;;6.55;6.05;;;;;;;21.46;81.12;99811.77;1622015;85;21105;-69
2022/08/15 03:08:47;;;;;;;6.58;6.10;;;;;;;21.46;81.21;99808.25;1632498;85;21040;-69
2022/08/15 03:11:14;;;;;;;10.80;6.30;;;;;;;21.43;81.35;99812.27;1637492;84;21081;-67
2022/08/15 03:13:41;;;;;;;8.28;6.15;;;;;;;21.41;81.45;99810.92;1662237;84;20997;-67
2022/08/15 03:16:11;;;;;;;6.22;5.72;;;;;;;21.41;81.53;99813.64;1650296;84;20989;-68
2022/08/15 03:18:41;;;;;;;7.28;5.75;;;;;;;21.41;81.57;99813.09;1665372;84;21033;-68
2022/08/15 03:21:12;;;;;;;6.67;6.17;;;;;;;21.38;81.62;99803.61;1660448;84;21037;-68
2022/08/15 03:23:48;;;;;;;6.17;5.67;;;;;;;21.41;81.66;99813.64;1670604;84;21009;-68
2022/08/15 03:26:11;;;;;;;7.00;6.37;;;;;;;21.38;81.76;99810.94;1666946;84;21038;-67
2022/08/15 03:28:37;;;;;;;9.15;6.75;;;;;;;21.37;81.87;99810.11;1668188;84;21085;-67
2022/08/15 03:31:07;;;;;;;6.70;6.20;;;;;;;21.38;81.82;99810.94;1663231;84;21587;-69
2022/08/15 03:33:37;;;;;;;10.28;6.22;;;;;;;21.37;81.88;99804.69;1673663;84;21034;-68
2022/08/15 03:36:06;;;;;;;7.20;6.65;;;;;;;21.37;81.89;99814.72;1670031;84;20998;-68
2022/08/15 03:38:32;;;;;;;6.60;6.08;;;;;;;21.36;81.85;99800.88;1637409;85;21020;-69
2022/08/15 03:40:59;;;;;;;6.47;6.08;;;;;;;21.36;81.97;99801.72;1643180;85;21006;-69
2022/08/15 03:43:29;;;;;;;6.42;5.85;;;;;;;21.36;81.93;99807.14;1666979;84;21019;-69
2022/08/15 03:46:02;;;;;;;7.05;6.37;;;;;;;21.36;81.96;99803.59;1661503;84;21006;-68
2022/08/15 03:48:33;;;;;;;7.45;6.83;;;;;;;21.36;81.96;99811.73;1654809;84;21011;-68
2022/08/15 03:51:01;;;;;;;10.05;6.67;;;;;;;21.35;82.02;99806.05;1657844;84;20982;-69
2022/08/15 03:53:34;;;;;;;7.00;6.40;;;;;;;21.35;82.07;99808.22;1665361;84;21611;-68
2022/08/15 03:56:04;;;;;;;6.95;6.33;;;;;;;21.36;82.13;99811.21;1651223;84;20988;-68
2022/08/15 03:58:33;;;;;;;7.87;7.25;;;;;;;21.37;82.41;99806.59;1634344;85;21140;-68
2022/08/15 04:00:59;;;;;;;8.85;6.95;;;;;;;21.36;82.49;99807.14;1628958;85;21009;-68
2022/08/15 04:03:29;;;;;;;6.60;6.08;;;;;;;21.35;82.59;99793.86;1599572;87;21063;-68
2022/08/15 04:06:01;;;;;;;8.05;6.70;;;;;;;21.34;82.59;99801.19;1588194;88;21528;-68
2022/08/15 04:08:31;;;;;;;6.08;5.67;;;;;;;21.35;82.54;99803.34;1614106;87;21103;-68
2022/08/15 04:11:02;;;;;;;7.10;6.50;;;;;;;21.36;82.76;99790.88;1608013;87;20999;-67
2022/08/15 04:13:29;;;;;;;6.75;6.22;;;;;;;21.37;83.21;99794.39;1583404;87;21063;-69
2022/08/15 04:15:59;;;;;;;7.67;6.97;;;;;;;21.35;83.24;99792.50;1607756;87;21003;-69
2022/08/15 04:18:28;;;;;;;7.33;6.62;;;;;;;21.30;83.59;99795.20;1593913;88;21848;-67
2022/08/15 04:21:00;;;;;;;6.92;6.30;;;;;;;21.29;84.07;99794.95;1602244;87;21073;-67
2022/08/15 04:23:28;;;;;;;7.25;6.55;;;;;;;21.28;84.29;99801.45;1604872;86;21053;-69
2022/08/15 04:25:54;;;;;;;6.97;6.37;;;;;;;21.25;84.37;99803.34;1633134;86;20986;-69
2022/08/15 04:28:24;;;;;;;6.58;6.03;;;;;;;21.25;84.09;99802.81;1634003;86;21102;-68
2022/08/15 04:30:51;;;;;;;7.37;6.67;;;;;;;21.31;83.76;99798.20;1614321;86;21603;-69
2022/08/15 04:33:29;;;;;;;7.03;6.42;;;;;;;21.36;83.23;99801.72;1601313;86;21031;-67
2022/08/15 04:36:10;;;;;;;6.78;6.28;;;;;;;21.44;82.85;99794.96;1627779;87;21538;-68
2022/08/15 04:38:39;;;;;;;8.23;7.20;;;;;;;21.50;82.65;99788.44;1627400;86;21014;-70
2022/08/15 04:41:07;;;;;;;6.75;6.10;;;;;;;21.57;81.91;99794.94;1605965;86;21071;-66
2022/08/15 04:43:37;;;;;;;7.87;7.05;;;;;;;21.64;81.80;99783.23;1637718;86;20981;-65
2022/08/15 04:46:06;;;;;;;6.95;6.45;;;;;;;21.78;81.53;99784.30;1639402;85;20979;-67
2022/08/15 04:48:32;;;;;;;6.40;5.92;;;;;;;22.19;81.21;99790.12;1608978;87;21065;-68
2022/08/15 04:51:01;;;;;;;7.05;6.45;;;;;;;22.80;78.61;99787.59;1636178;84;21412;-69
2022/08/15 04:53:33;;;;;;;8.43;6.30;;;;;;;23.33;75.29;99792.34;1631511;86;21042;-69
2022/08/15 04:56:03;;;;;;;5.75;5.37;;;;;;;23.57;74.21;99788.86;1646141;85;21013;-69
2022/08/15 04:58:31;;;;;;;6.40;6.00;;;;;;;23.80;72.55;99792.71;1645641;87;21057;-68
2022/08/15 05:01:02;;;;;;;6.78;6.03;;;;;;;23.79;72.30;99788.36;1646507;85;20981;-69
2022/08/15 05:03:32;;;;;;;6.17;5.67;;;;;;;23.66;71.86;99783.05;1644978;87;21000;-66
2022/08/15 05:06:03;;;;;;;6.08;5.67;;;;;;;23.51;72.54;99785.38;1647267;87;21021;-68
2022/08/15 05:08:33;;;;;;;6.47;5.50;;;;;;;23.35;72.14;99785.27;1645996;85;20970;-68
2022/08/15 05:11:10;;;;;;;7.83;6.92;;;;;;;23.19;72.87;99784.58;1640911;85;21616;-67
2022/08/15 05:13:38;;;;;;;6.95;6.05;;;;;;;23.01;73.58;99780.09;1637387;85;20958;-66
2022/08/15 05:16:07;;;;;;;12.33;5.92;;;;;;;22.91;74.01;99779.63;1646086;86;21017;-67
2022/08/15 05:18:40;;;;;;;6.20;5.78;;;;;;;22.91;74.87;99774.75;1646622;85;20965;-68
2022/08/15 05:21:09;;;;;;;5.87;5.47;;;;;;;22.96;74.87;99771.97;1639092;86;20980;-66
2022/08/15 05:23:38;;;;;;;6.58;5.95;;;;;;;23.03;74.28;99775.73;1633166;86;20973;-66
2022/08/15 05:26:07;;;;;;;6.67;6.28;;;;;;;23.20;74.10;99782.14;1641077;85;20990;-65
2022/08/15 05:28:35;;;;;;;7.97;7.40;;;;;;;23.43;72.98;99778.67;1634981;87;20989;-69
2022/08/15 05:31:07;;;;;;;6.80;6.12;;;;;;;23.66;72.01;99772.17;1630329;85;21028;-69
2022/08/15 05:33:37;;;;;;;7.53;6.00;;;;;;;23.73;71.23;99765.80;1633163;85;21005;-68
2022/08/15 05:36:06;;;;;;;6.37;5.70;;;;;;;23.74;71.37;99777.52;1623454;87;21830;-68
2022/08/15 05:38:40;;;;;;;6.47;5.87;;;;;;;23.72;71.41;99764.20;1626320;85;21092;-67
2022/08/15 05:41:36;;;;;;;6.67;6.08;;;;;;;23.77;71.00;99760.59;1634631;86;21021;-69
2022/08/15 05:44:47;;;;;;;6.33;5.80;;;;;;;23.79;69.98;99764.70;1640773;82;21137;-70
2022/08/15 05:47:20;;;;;;;6.75;6.08;;;;;;;23.95;69.55;99765.31;1657896;84;20978;-69
2022/08/15 05:49:57;;;;;;;6.28;5.85;;;;;;;24.16;68.79;99765.05;1722290;81;21594;-70
2022/08/15 05:52:50;;;;;;;6.47;6.08;;;;;;;24.31;68.40;99761.31;1683240;83;21101;-74
2022/08/15 05:55:44;;;;;;;6.47;5.90;;;;;;;24.43;67.62;99758.94;1734313;82;21249;-68
2022/08/15 05:58:46;;;;;;;7.45;5.62;;;;;;;24.52;66.52;99761.29;1733133;82;21078;-68
2022/08/15 06:01:36;;;;;;;6.10;5.58;;;;;;;24.51;66.19;99754.21;1712034;83;21021;-73
2022/08/15 06:04:23;;;;;;;7.78;6.35;;;;;;;24.57;64.98;99769.39;1705852;84;21030;-72
2022/08/15 06:06:50;;;;;;;10.25;5.95;;;;;;;24.52;64.24;99761.85;1740434;82;21045;-67
2022/08/15 06:09:42;;;;;;;6.20;5.60;;;;;;;24.46;64.78;99748.83;1699634;84;20980;-73
2022/08/15 06:12:14;;;;;;;6.45;6.05;;;;;;;24.44;64.40;99768.19;1713386;84;21002;-68
2022/08/15 06:14:45;;;;;;;9.08;6.60;;;;;;;24.38;64.59;99751.67;1701354;81;21696;-68
2022/08/15 06:17:29;;;;;;;8.30;6.00;;;;;;;24.34;64.35;99764.82;1690295;83;21563;-68
2022/08/15 06:20:02;;;;;;;6.20;5.70;;;;;;;24.27;64.60;99764.61;1667298;84;21158;-73
2022/08/15 06:22:49;;;;;;;6.83;5.95;;;;;;;24.24;65.13;99758.41;1641010;85;21032;-72
2022/08/15 06:25:43;;;;;;;6.28;5.50;;;;;;;24.23;64.78;99762.22;1666124;83;21040;-68
2022/08/15 06:28:39;;;;;;;7.15;6.62;;;;;;;24.21;64.75;99757.63;1687219;83;21007;-71
2022/08/15 06:31:34;;;;;;;7.65;6.83;;;;;;;24.22;64.68;99752.45;1673049;82;21085;-67
2022/08/15 06:34:25;;;;;;;8.13;6.33;;;;;;;24.20;64.63;99772.33;1667615;84;21061;-68
2022/08/15 06:37:18;;;;;;;9.28;5.40;;;;;;;24.15;64.67;99747.08;1640293;86;21082;-71
2022/08/15 06:40:02;;;;;;;7.40;6.70;;;;;;;24.13;64.54;99754.73;1629570;86;20959;-72
2022/08/15 06:42:35;;;;;;;6.28;5.87;;;;;;;24.11;64.54;99753.69;1691626;83;21132;-70
2022/08/15 06:45:11;;;;;;;8.63;5.80;;;;;;;24.10;64.42;99747.97;1716378;83;21006;-67
2022/08/15 06:47:38;;;;;;;8.50;6.15;;;;;;;24.09;64.49;99759.42;1710570;83;21049;-74
2022/08/15 06:50:13;;;;;;;5.65;5.17;;;;;;;24.11;64.58;99761.86;1717613;83;21002;-68
2022/08/15 06:52:45;;;;;;;6.40;5.90;;;;;;;24.15;64.14;99757.44;1706283;80;21087;-69
2022/08/15 06:55:11;;;;;;;6.35;5.83;;;;;;;24.18;63.84;99756.84;1713972;81;21066;-71
2022/08/15 06:57:53;;;;;;;5.72;5.30;;;;;;;24.21;63.72;99758.98;1702170;81;21011;-72
2022/08/15 07:00:39;;;;;;;5.78;5.30;;;;;;;24.25;63.73;99759.21;1728996;81;21039;-68
2022/08/15 07:03:32;;;;;;;6.87;5.87;;;;;;;24.26;63.38;99756.20;1658633;81;21054;-75
2022/08/15 07:05:59;;;;;;;7.12;6.50;;;;;;;24.27;63.20;99761.89;1744574;81;20980;-73
2022/08/15 07:08:55;;;;;;;5.97;5.37;;;;;;;24.31;63.14;99770.84;1742482;81;21125;-69
2022/08/15 07:11:37;;;;;;;6.45;5.87;;;;;;;24.31;63.06;99748.50;1711380;82;21042;-72
2022/08/15 07:14:26;;;;;;;7.25;5.55;;;;;;;24.32;62.93;99756.11;1716997;81;22032;-83
2022/08/15 08:05:47;;;;;;;5.33;3.85;;;;;;;24.85;59.45;99788.60;1729139;79;21165;-80
2022/08/15 08:51:06;;;;;;;4.92;4.62;;;;;;;25.05;58.90;99767.82;1737586;80;21156;-79
2022/08/15 08:57:06;;;;;;;9.88;4.90;;;;;;;25.15;59.26;99757.29;1659569;85;21014;-76
2022/08/15 08:59:50;;;;;;;6.33;4.97;;;;;;;25.21;59.25;99771.64;1653336;85;21458;-80
2022/08/15 09:02:26;;;;;;;5.47;4.95;;;;;;;25.24;59.03;99766.43;1690256;79;21125;-76
2022/08/15 09:05:03;;;;;;;4.35;3.95;;;;;;;25.30;59.35;99771.23;1722466;79;84671;-91
2022/08/15 09:07:38;;;;;;;4.58;4.17;;;;;;;25.35;59.23;99775.78;1680320;82;21050;-88
2022/08/15 09:10:09;;;;;;;4.30;4.00;;;;;;;25.41;58.96;99790.41;1675227;84;21128;-91
2022/08/15 09:15:36;;;;;;;5.40;4.12;;;;;;;25.53;58.73;99794.00;1681153;84;21133;-91
2022/08/15 09:18:11;;;;;;;3.95;3.62;;;;;;;25.65;57.81;99801.69;1647842;85;21165;-90
2022/08/15 09:20:41;;;;;;;4.28;3.90;;;;;;;25.76;57.29;99808.56;1625400;85;21105;-88
2022/08/15 09:23:13;;;;;;;6.50;3.83;;;;;;;25.82;57.21;99816.93;1656129;84;21057;-92
2022/08/15 09:25:51;;;;;;;;;;;;;;;25.88;56.90;99803.16;1645683;86;22140;-89
2022/08/15 09:28:35;;;;;;;12.47;3.98;;;;;;;25.96;56.29;99798.41;1631197;86;20585;-87
2022/08/15 09:31:11;;;;;;;5.30;3.98;;;;;;;25.98;56.50;99807.09;1630877;86;21014;-90
2022/08/15 09:34:24;;;;;;;3.70;3.50;;;;;;;26.04;56.26;99797.67;1639453;85;21053;-90
2022/08/15 09:37:33;;;;;;;3.75;3.52;;;;;;;26.12;56.14;99808.44;1647223;85;21083;-90
2022/08/15 09:40:22;;;;;;;4.60;4.20;;;;;;;26.14;55.46;99790.63;1656108;85;21045;-91
2022/08/15 09:43:18;;;;;;;4.58;4.22;;;;;;;26.16;55.27;99786.23;1627297;87;21341;-92
2022/08/15 09:46:12;;;;;;;5.15;3.33;;;;;;;26.17;55.17;99783.20;1655754;81;86446;-81
2022/08/15 09:49:02;;;;;;;6.22;3.47;;;;;;;26.18;55.90;99779.36;1715646;80;21090;-83
2022/08/15 09:51:57;;;;;;;5.53;3.55;;;;;;;26.19;55.17;99773.33;1723115;81;21077;-82
2022/08/15 09:54:23;;;;;;;4.90;3.77;;;;;;;26.19;54.64;99774.70;1641337;81;21196;-80
2022/08/15 09:56:53;;;;;;;6.08;3.62;;;;;;;26.21;54.70;99776.00;1716344;79;21072;-80
2022/08/15 09:59:23;;;;;;;9.90;2.87;;;;;;;26.22;54.38;99772.16;1737855;81;21011;-80
2022/08/15 10:01:54;;;;;;;4.10;2.90;;;;;;;26.24;54.75;99766.41;1732535;81;21122;-77
2022/08/15 10:04:24;;;;;;;3.45;3.15;;;;;;;26.25;54.88;99761.73;1703407;82;21013;-78
2022/08/15 10:07:04;;;;;;;11.85;3.90;;;;;;;26.23;54.70;99753.28;1679223;81;21902;-82
2022/08/15 10:09:35;;;;;;;3.80;3.55;;;;;;;26.24;54.37;99759.58;1709170;81;21420;-79
2022/08/15 10:12:31;;;;;;;8.75;3.75;;;;;;;26.24;54.65;99751.38;1724731;80;21110;31
2022/08/15 10:18:08;;;;;;;9.03;3.67;;;;;;;26.29;55.50;99744.98;1746821;80;83178;-91
2022/08/15 10:24:28;;;;;;;8.88;4.37;;;;;;;26.35;54.66;99736.91;1746157;80;85184;-77
2022/08/15 10:33:33;;;;;;;4.15;3.35;;;;;;;26.33;54.18;99747.34;1705948;81;21209;-78
2022/08/15 10:36:25;;;;;;;4.42;2.95;;;;;;;26.23;54.41;99746.45;1707757;81;21142;-78
2022/08/15 10:39:32;;;;;;;3.65;3.37;;;;;;;26.21;54.79;99735.02;1726733;78;21094;-73
2022/08/15 10:42:23;;;;;;;3.25;2.92;;;;;;;26.23;54.36;99736.09;1748741;79;21131;-75
2022/08/15 10:54:17;;;;;;;3.67;3.37;;;;;;;26.13;53.96;99738.50;1743235;80;21010;-76
2022/08/15 11:00:57;;;;;;;3.10;2.98;;;;;;;26.13;53.90;99738.50;1729774;79;23406;31
2022/08/15 11:03:35;;;;;;;8.30;3.37;;;;;;;26.12;54.05;99749.16;1735194;79;21150;-76
2022/08/15 11:06:05;;;;;;;6.92;3.25;;;;;;;26.11;54.33;99759.05;1729905;81;21480;-81
2022/08/15 11:09:08;;;;;;;4.53;3.77;;;;;;;26.09;54.26;99741.59;1746736;79;21167;31
2022/08/15 12:11:14;;;;;;;3.27;2.85;;;;;;;25.57;58.08;99729.52;1719764;79;21197;31
2022/08/15 12:14:03;;;;;;;3.20;2.97;;;;;;;25.63;58.09;99730.23;1715261;79;21542;-76
2022/08/15 12:16:46;;;;;;;7.08;2.87;;;;;;;25.67;57.93;99727.70;1741853;79;21045;-76
2022/08/15 12:22:29;;;;;;;3.37;2.60;;;;;;;25.74;57.81;99729.47;1733330;78;23631;31
2022/08/15 12:24:58;;;;;;;4.87;2.58;;;;;;;25.76;57.60;99725.88;1758208;79;21198;31
2022/08/15 12:27:24;;;;;;;3.92;3.05;;;;;;;25.78;57.35;99729.91;1728941;81;20989;-75
2022/08/15 12:33:49;;;;;;;4.95;3.20;;;;;;;25.88;56.80;99720.72;1722694;78;22993;31
2022/08/15 12:36:15;;;;;;;4.12;2.92;;;;;;;25.94;56.44;99710.53;1722829;79;21102;-74
2022/08/15 12:42:29;;;;;;;5.58;2.40;;;;;;;26.03;55.85;99713.59;1738772;78;23225;31
2022/08/15 13:36:40;;;;;;;6.17;3.62;;;;;;;26.84;55.64;99664.13;1703259;79;21676;-75
2022/08/15 13:39:14;;;;;;;3.10;2.70;;;;;;;26.77;55.69;99659.69;1719906;82;21510;-75
2022/08/15 13:49:12;;;;;;;3.35;2.98;;;;;;;26.70;56.30;99666.95;1757282;77;21166;-74
2022/08/15 13:51:45;;;;;;;6.40;3.37;;;;;;;26.69;56.52;99670.83;1736859;81;21000;-76
2022/08/15 13:54:20;;;;;;;2.77;2.58;;;;;;;26.70;56.63;99661.48;1761605;79;21172;31
2022/08/15 13:56:46;;;;;;;2.92;2.83;;;;;;;26.72;56.64;99664.71;1720918;82;20972;-75
2022/08/15 14:03:00;;;;;;;2.85;2.50;;;;;;;26.75;56.82;99661.36;1704282;81;21410;-74
2022/08/15 14:05:28;;;;;;;3.15;2.85;;;;;;;26.71;57.65;99662.29;1690549;83;20996;-76
2022/08/15 14:07:54;;;;;;;5.45;3.05;;;;;;;26.69;57.86;99660.43;1692712;83;21044;-75
2022/08/15 14:16:27;;;;;;;6.35;3.05;;;;;;;26.71;57.79;99663.66;1684694;81;21082;-76
2022/08/15 14:18:53;;;;;;;3.83;3.10;;;;;;;26.76;57.89;99658.06;1713415;83;21014;-78
2022/08/15 14:21:22;;;;;;;8.43;4.00;;;;;;;26.80;57.61;99657.68;1695206;83;21107;-77
2022/08/15 14:26:25;;;;;;;4.75;2.92;;;;;;;26.85;57.83;99657.55;1684052;84;21007;-79
2022/08/15 14:28:53;;;;;;;6.67;3.80;;;;;;;26.88;57.76;99659.67;1683809;84;20999;-80
2022/08/15 14:31:20;;;;;;;12.53;11.18;;;;;;;26.91;57.80;99657.66;1722327;80;21537;-78
2022/08/15 14:33:47;;;;;;;6.78;6.25;;;;;;;26.93;57.80;99659.52;1754579;81;20963;-82
2022/08/15 14:36:13;;;;;;;10.08;8.38;;;;;;;26.96;57.86;99660.83;1745663;80;20940;-78
2022/08/15 14:38:39;;;;;;;6.20;4.90;;;;;;;26.99;57.94;99661.02;1705861;82;84559;-85
2022/08/15 14:41:10;;;;;;;5.47;4.47;;;;;;;27.03;57.96;99668.03;1739724;81;21071;-90
2022/08/15 14:43:41;;;;;;;3.92;3.47;;;;;;;27.07;57.98;99666.27;1746508;79;21278;-86
2022/08/15 14:46:10;;;;;;;7.30;3.52;;;;;;;27.11;57.75;99666.45;1744252;79;20990;-86
2022/08/15 14:48:42;;;;;;;3.65;3.35;;;;;;;27.12;57.84;99673.52;1739445;81;21183;-84
2022/08/15 14:51:16;;;;;;;7.42;2.90;;;;;;;27.14;57.94;99672.64;1733711;81;21041;-85
2022/08/15 14:53:45;;;;;;;;;;;;;;;27.17;58.12;99674.19;1737093;81;21032;-86
2022/08/15 14:56:17;;;;;;;5.42;3.58;;;;;;;27.21;57.91;99684.51;1735001;81;20271;-85
2022/08/15 14:58:43;;;;;;;7.72;3.50;;;;;;;27.16;57.93;99686.81;1735957;82;21097;-86
2022/08/15 15:01:12;;;;;;;4.87;3.30;;;;;;;27.18;57.52;99684.02;1735333;81;20981;-88
2022/08/15 15:03:39;;;;;;;7.55;3.00;;;;;;;27.21;57.56;99694.88;1733682;81;21113;-86
2022/08/15 15:06:12;;;;;;;4.95;3.20;;;;;;;27.23;57.34;99694.58;1735935;81;21017;-87
2022/08/15 15:08:51;;;;;;;6.30;2.67;;;;;;;27.26;56.58;99695.35;1736998;81;21470;-91
2022/08/15 15:11:39;;;;;;;4.85;2.47;;;;;;;27.27;55.38;99690.11;1731167;81;21611;-90
2022/08/15 15:14:29;;;;;;;10.32;2.58;;;;;;;27.26;53.01;99687.94;1716925;81;21248;-89
2022/08/15 15:17:43;;;;;;;;;;;;;;;;;;;;;
2022/08/15 15:20:43;;;;;;;5.70;2.55;;;;;;;27.25;50.87;99678.65;1544491;92;21028;-91
2022/08/15 15:23:45;;;;;;;3.15;1.90;;;;;;;27.23;49.74;99684.43;1549588;87;21071;-89
2022/08/15 17:48:43;;;;;;;5.25;3.80;;;;;;;25.59;52.75;99707.39;1692792;80;21691;-71
2022/08/15 17:58:52;;;;;;;6.22;2.58;;;;;;;25.45;53.40;99712.86;1647650;80;21133;-74
2022/08/15 18:01:18;;;;;;;6.37;3.12;;;;;;;25.40;53.61;99707.50;1641848;83;21135;-73
2022/08/15 18:03:45;;;;;;;3.77;2.75;;;;;;;25.37;53.75;99716.27;1660167;84;21661;-74
2022/08/15 18:33:34;;;;;;;12.43;3.30;;;;;;;25.03;54.89;99697.79;1673810;82;20940;-74
2022/08/15 18:36:09;;;;;;;5.05;3.00;;;;;;;24.72;54.99;99647.66;1723774;82;21070;-74
2022/08/15 18:41:05;;;;;;;9.40;3.12;;;;;;;24.98;55.10;99691.06;1691279;81;21074;-73
2022/08/15 18:41:16;;;;;;;6.42;3.05;;;;;;;24.97;55.15;99688.06;1663040;84;20994;-74
2022/08/15 18:43:59;;;;;;;7.45;3.17;;;;;;;24.95;55.18;99688.13;1724859;80;21026;-73
2022/08/15 18:46:35;;;;;;;3.52;3.27;;;;;;;24.92;55.30;99689.54;1708874;82;21684;-72
2022/08/15 18:49:06;;;;;;;7.25;2.90;;;;;;;24.60;55.30;99641.30;1698749;83;21038;-75
2022/08/15 18:51:56;;;;;;;5.53;3.58;;;;;;;24.89;55.40;99688.77;1641086;85;21112;-73
2022/08/15 18:54:42;;;;;;;4.90;3.40;;;;;;;24.86;55.41;99687.98;1627158;87;22134;-74
2022/08/15 18:57:17;;;;;;;5.80;3.37;;;;;;;24.85;55.49;99678.21;1665341;84;20942;-74
2022/08/15 19:00:07;;;;;;;6.83;3.45;;;;;;;24.83;55.47;99672.25;1662772;82;21153;-73
2022/08/15 19:02:52;;;;;;;5.87;4.12;;;;;;;24.82;55.57;99681.53;1645689;85;21410;-73
2022/08/15 19:05:30;;;;;;;18.07;4.03;;;;;;;24.80;56.05;99672.84;1642750;85;21096;-74
2022/08/15 19:10:47;;;;;;;3.83;3.52;;;;;;;24.74;56.19;99668.59;1660202;84;21185;-74
2022/08/15 19:13:37;;;;;;;6.97;4.10;;;;;;;24.72;56.24;99664.00;1700290;83;21327;-73
2022/08/15 19:16:33;;;;;;;6.05;4.22;;;;;;;24.64;56.78;99649.95;1713016;82;21644;-74
2022/08/15 19:25:19;;;;;;;7.08;3.85;;;;;;;24.41;58.88;99651.67;1675421;79;21200;-76
2022/08/15 19:28:06;;;;;;;4.25;3.95;;;;;;;24.32;59.44;99649.37;1650694;85;22189;-76
2022/08/15 19:30:47;;;;;;;3.72;3.50;;;;;;;24.26;60.13;99641.00;1692202;82;21146;-75
2022/08/15 19:33:28;;;;;;;5.15;3.92;;;;;;;24.14;60.91;99639.30;1682444;82;21715;-75
2022/08/15 19:36:11;;;;;;;4.95;3.60;;;;;;;24.02;61.39;99631.59;1676913;83;21076;-76
2022/08/15 19:38:58;;;;;;;8.70;4.50;;;;;;;23.91;61.74;99630.92;1632636;83;21332;-75
2022/08/15 19:41:42;;;;;;;;;;;;;;;23.85;61.89;99622.58;1672301;84;21019;-73
2022/08/15 19:44:29;;;;;;;4.65;4.17;;;;;;;23.82;61.79;99616.36;1645239;84;20177;-73
2022/08/15 19:47:05;;;;;;;;;;;;;;;23.76;61.77;99610.15;1624742;84;21102;-73
2022/08/15 19:52:49;;;;;;;4.72;3.60;;;;;;;23.75;61.51;99610.44;1726013;81;21177;-73
2022/08/15 19:55:24;;;;;;;4.00;3.12;;;;;;;23.80;60.97;99605.76;1726358;81;21052;-71